Artie, West Virginia
Current Conditions -  °F | °C
As of 8:10 AM on Wednesday 22 Oct 2014 (Local Time) from KBKW Reporting Station
Light Rain Light Rain  
Wind Chill: 35°   Ceiling: 300
Heat Index: 41°   Visibility: 2mi
Dew Point: 39°   Wind: 9mph
Humidity: 93%   Direction: 310°NW
Pressure: 30.11"   Gusts: NA
Location:  37.93°N, 81.36°W
Report Text: KBKW 221210Z AUTO 31008KT 2SM -RA BR OVC003 05/04 A3011 RMK AO2 P0000 T00500039 TSNO
Loading
Personal Weather Stations






























Interactive Weather Map New forecast layout! Learn more

10-Day Weather Forecast

Advertisements
Track Severe Weather on mobile